LGSA/CHQ METAR and TAF weather

Enter ICAO airport designator
Station Type Date Time Source
LGSA METAR 2019/08/19 23:20 UTC NOAA

LGSA 192320Z 00000KT 9999 FEW030 21/18 Q1014


Station Type Date Time Source
LGSA Decoded METAR 2019/08/19 23:20 UTC NOAA

Souda Airport , Greece (LGSA) 35-29N 024-07E 151M
Aug 19, 2019 - 07:20 PM EDT / 2019.08.19 2320 UTC
Wind: Calm:0
Visibility: greater than 7 mile(s):0
Sky conditions: mostly clear
Temperature: 69 F (21 C)
Dew Point: 64 F (18 C)
Relative Humidity: 82%
Pressure (altimeter): 29.94 in. Hg (1014 hPa)
ob: LGSA 192320Z 00000KT 9999 FEW030 21/18 Q1014
cycle: 23

Station Type Date Time Source
LGSA TAF 2019/08/19 18:15 UTC NOAA

TAF LGSA 191700Z 1918/2018 01014KT 9999 FEW025

Example: see airport list